createdAt,value
2022-11-04T05:30:59.527Z,7.80
2022-11-04T05:31:59.633Z,8.20
2022-11-04T05:33:03.421Z,11.50
2022-11-04T05:34:00.476Z,9.20
2022-11-04T05:34:59.466Z,6.10
2022-11-04T05:35:59.456Z,7.70
2022-11-04T05:36:59.455Z,6.80
2022-11-04T05:37:59.490Z,10.50
2022-11-04T05:38:59.415Z,9.20
2022-11-04T05:39:59.396Z,9.20
2022-11-04T05:40:59.384Z,12.20
2022-11-04T05:41:59.393Z,8.00
2022-11-04T05:42:59.355Z,7.60
2022-11-04T05:43:59.385Z,6.20
2022-11-04T05:44:59.335Z,7.60
2022-11-04T05:46:06.391Z,8.60
2022-11-04T05:46:59.313Z,6.70
2022-11-04T05:47:59.312Z,10.10
2022-11-04T05:48:59.313Z,8.60
2022-11-04T05:49:59.327Z,7.90
2022-11-04T05:50:59.302Z,11.80
2022-11-04T05:51:59.249Z,9.20
2022-11-04T05:52:59.253Z,9.70
2022-11-04T05:53:59.284Z,9.50
2022-11-04T05:54:59.200Z,12.20
2022-11-04T05:55:59.200Z,8.10
2022-11-04T05:56:59.180Z,8.80
2022-11-04T05:57:59.186Z,11.60
2022-11-04T05:58:59.160Z,12.10
2022-11-04T05:59:59.162Z,8.80
2022-11-04T06:00:59.132Z,13.80
2022-11-04T06:01:59.217Z,8.90
2022-11-04T06:02:59.215Z,9.60
2022-11-04T06:03:59.089Z,8.80
2022-11-04T06:04:59.069Z,10.40
2022-11-04T06:05:59.062Z,14.00
2022-11-04T06:06:59.052Z,9.70
2022-11-04T06:07:59.089Z,12.80
2022-11-04T06:08:59.018Z,11.80
2022-11-04T06:09:59.012Z,11.30
2022-11-04T06:10:59.032Z,8.90
2022-11-04T06:11:58.981Z,9.70
2022-11-04T06:12:58.993Z,11.20
2022-11-04T06:13:58.962Z,12.90
2022-11-04T06:14:59.019Z,11.40
2022-11-04T06:15:58.930Z,9.70
2022-11-04T06:16:58.983Z,12.20
2022-11-04T06:17:58.918Z,10.00
2022-11-04T06:19:01.709Z,12.50
2022-11-04T06:19:59.879Z,15.80
2022-11-04T06:20:58.859Z,11.30
2022-11-04T06:21:58.848Z,10.60
2022-11-04T06:22:58.838Z,13.10
2022-11-04T06:23:58.819Z,9.70
2022-11-04T06:24:58.813Z,10.30
2022-11-04T06:25:58.789Z,10.60
2022-11-04T06:26:58.775Z,13.50
2022-11-04T06:27:58.788Z,13.30
2022-11-04T06:28:58.753Z,11.10
2022-11-04T06:29:58.736Z,14.90
2022-11-04T06:30:58.716Z,11.90
2022-11-04T06:31:58.716Z,12.30
2022-11-04T06:32:58.704Z,14.10
2022-11-04T06:33:58.696Z,13.20
2022-11-04T06:34:58.677Z,11.10
2022-11-04T06:35:58.677Z,12.10
2022-11-04T06:36:58.636Z,13.30
2022-11-04T06:37:58.636Z,12.60
2022-11-04T06:39:04.111Z,10.00
2022-11-04T06:39:59.604Z,12.70
2022-11-04T06:40:58.671Z,14.00
2022-11-04T06:41:59.830Z,17.30
2022-11-04T06:42:58.703Z,13.60
2022-11-04T06:43:58.553Z,12.90
2022-11-04T06:44:58.566Z,15.50
2022-11-04T06:45:58.557Z,13.70
2022-11-04T06:46:58.504Z,12.80
2022-11-04T06:47:58.527Z,13.90
2022-11-04T06:48:58.500Z,11.90
2022-11-04T06:49:58.494Z,10.40
2022-11-04T06:50:58.454Z,13.50
2022-11-04T06:51:58.444Z,10.10
2022-11-04T06:52:58.444Z,11.20
2022-11-04T06:53:58.415Z,10.20
2022-11-04T06:54:58.397Z,9.80
2022-11-04T06:55:58.394Z,13.00
2022-11-04T06:56:58.378Z,13.90
2022-11-04T06:57:58.386Z,11.40
2022-11-04T06:58:58.356Z,11.50
2022-11-04T06:59:58.334Z,14.10
2022-11-04T07:00:58.366Z,11.10
2022-11-04T07:01:58.432Z,14.50
2022-11-04T07:02:58.321Z,11.10
2022-11-04T07:03:58.356Z,10.70
2022-11-04T07:05:58.252Z,12.20
2022-11-04T07:06:58.232Z,8.40
2022-11-04T07:07:58.252Z,12.50
2022-11-04T07:08:58.221Z,11.40
2022-11-04T07:09:58.203Z,8.50
2022-11-04T07:10:58.203Z,13.60
2022-11-04T07:11:58.174Z,10.30
2022-11-04T07:12:58.170Z,8.60
2022-11-04T07:13:58.151Z,8.80
2022-11-04T07:14:58.220Z,11.40
2022-11-04T07:15:58.128Z,10.90
2022-11-04T07:16:58.112Z,10.10
2022-11-04T07:17:58.102Z,12.60
2022-11-04T07:18:58.081Z,11.40
2022-11-04T07:19:58.064Z,10.70
2022-11-04T07:20:58.052Z,14.80
2022-11-04T07:21:58.041Z,12.90
2022-11-04T07:22:58.029Z,12.40
2022-11-04T07:23:58.028Z,9.70
2022-11-04T07:24:57.999Z,8.00
2022-11-04T07:25:57.994Z,12.00
2022-11-04T07:26:58.027Z,10.40
2022-11-04T07:28:01.129Z,9.80
2022-11-04T07:28:57.979Z,8.70
2022-11-04T07:29:57.935Z,10.50
2022-11-04T07:30:57.921Z,11.40
2022-11-04T07:31:57.910Z,10.10
2022-11-04T07:32:57.889Z,11.10
2022-11-04T07:33:57.890Z,9.80
2022-11-04T07:34:57.889Z,9.60
2022-11-04T07:35:58.545Z,13.40
2022-11-04T07:36:57.841Z,11.00
2022-11-04T07:37:57.831Z,12.70
2022-11-04T07:38:57.828Z,7.00
2022-11-04T07:39:57.819Z,11.70
2022-11-04T07:40:57.790Z,7.20
2022-11-04T07:41:59.626Z,9.60
2022-11-04T07:42:57.809Z,7.40
2022-11-04T07:43:57.788Z,9.60
2022-11-04T07:44:57.747Z,9.60
2022-11-04T07:45:57.738Z,13.00
2022-11-04T07:46:57.721Z,11.50
2022-11-04T07:47:57.698Z,15.20
2022-11-04T07:48:57.706Z,14.30
2022-11-04T07:49:57.746Z,13.10
2022-11-04T07:50:57.667Z,13.10
2022-11-04T07:51:57.648Z,12.40
2022-11-04T07:52:57.628Z,9.70
2022-11-04T07:53:57.627Z,11.30
2022-11-04T07:54:57.620Z,10.30
2022-11-04T07:55:57.596Z,14.60
2022-11-04T07:56:57.587Z,10.70
2022-11-04T07:57:57.568Z,12.40
2022-11-04T07:58:57.557Z,12.30
2022-11-04T07:59:57.546Z,8.90
2022-11-04T08:00:57.526Z,10.30
2022-11-04T08:01:57.667Z,9.00
2022-11-04T08:02:57.561Z,6.60
2022-11-04T08:03:57.516Z,8.60
2022-11-04T08:04:57.478Z,8.60
2022-11-04T08:05:57.466Z,10.30
2022-11-04T08:06:57.445Z,8.70
2022-11-04T08:07:57.435Z,11.80
2022-11-04T08:08:57.504Z,11.10
2022-11-04T08:09:57.415Z,10.40
2022-11-04T08:10:57.429Z,18.40
2022-11-04T08:11:57.405Z,9.50
2022-11-04T08:12:57.374Z,9.90
2022-11-04T08:13:57.423Z,11.70
2022-11-04T08:14:57.363Z,13.80
2022-11-04T08:15:57.328Z,15.10
2022-11-04T08:16:57.314Z,8.10
2022-11-04T08:17:57.305Z,18.10
2022-11-04T08:18:57.303Z,7.20
2022-11-04T08:19:57.274Z,10.50
2022-11-04T08:20:57.269Z,12.60
2022-11-04T08:21:57.265Z,11.30
2022-11-04T08:22:57.234Z,8.50
2022-11-04T08:23:57.235Z,12.40
2022-11-04T08:24:57.214Z,12.20
2022-11-04T08:25:57.195Z,8.80
2022-11-04T08:26:57.183Z,10.90
2022-11-04T08:28:00.827Z,8.60
2022-11-04T08:28:57.174Z,7.70
2022-11-04T08:29:57.145Z,8.80
2022-11-04T08:30:57.140Z,9.30
2022-11-04T08:31:57.122Z,12.40
2022-11-04T08:32:57.122Z,10.40
2022-11-04T08:33:57.106Z,9.90
2022-11-04T08:34:57.084Z,9.60
2022-11-04T08:35:57.063Z,10.20
2022-11-04T08:36:57.054Z,7.90
2022-11-04T08:37:57.050Z,9.80
2022-11-04T08:38:57.044Z,9.10
2022-11-04T08:39:57.013Z,8.60
2022-11-04T08:40:59.736Z,9.40
2022-11-04T08:41:57.340Z,9.50
2022-11-04T08:42:56.973Z,10.40
2022-11-04T08:43:56.973Z,11.30
2022-11-04T08:44:56.957Z,13.70
2022-11-04T08:45:56.940Z,9.60
2022-11-04T08:46:56.921Z,10.60
2022-11-04T08:48:01.316Z,7.50
2022-11-04T08:48:57.903Z,10.80
2022-11-04T08:49:56.881Z,12.40
2022-11-04T08:50:56.870Z,11.40
2022-11-04T08:51:56.939Z,11.30
2022-11-04T08:52:56.841Z,15.90
2022-11-04T08:53:56.859Z,8.50
2022-11-04T08:54:57.600Z,11.10
2022-11-04T08:55:56.804Z,10.40
2022-11-04T08:56:56.799Z,10.50
2022-11-04T08:57:56.779Z,9.40
2022-11-04T08:58:56.773Z,8.80
2022-11-04T08:59:56.750Z,11.30
2022-11-04T09:00:56.739Z,7.20
2022-11-04T09:01:56.786Z,10.40
2022-11-04T09:02:56.718Z,7.80
2022-11-04T09:03:56.747Z,8.70
2022-11-04T09:04:56.684Z,11.00
2022-11-04T09:05:56.670Z,12.50
2022-11-04T09:06:56.659Z,10.40
2022-11-04T09:07:56.651Z,8.30
2022-11-04T09:08:56.641Z,8.10
2022-11-04T09:09:56.620Z,8.90
2022-11-04T09:10:56.611Z,10.00
2022-11-04T09:11:56.614Z,7.90
2022-11-04T09:12:56.570Z,7.40
2022-11-04T09:13:56.580Z,12.70
2022-11-04T09:14:56.558Z,9.50
2022-11-04T09:15:56.551Z,12.30
2022-11-04T09:16:56.524Z,8.90
2022-11-04T09:17:56.509Z,13.90
2022-11-04T09:18:56.501Z,13.90
2022-11-04T09:19:56.491Z,8.90
2022-11-04T09:20:56.469Z,8.70
2022-11-04T09:21:56.461Z,8.80
2022-11-04T09:22:56.439Z,12.00
2022-11-04T09:23:56.450Z,11.90
2022-11-04T09:24:56.421Z,9.00
2022-11-04T09:25:56.409Z,11.00
2022-11-04T09:26:56.389Z,9.00
2022-11-04T09:27:56.379Z,8.70
2022-11-04T09:28:56.481Z,8.90
2022-11-04T09:29:56.349Z,7.70
2022-11-04T09:30:56.341Z,9.20
2022-11-04T09:31:56.336Z,8.70
2022-11-04T09:32:56.329Z,7.80
2022-11-04T09:33:56.311Z,9.50
2022-11-04T09:34:56.279Z,10.00
2022-11-04T09:35:56.296Z,11.40
2022-11-04T09:36:56.259Z,9.50
2022-11-04T09:37:56.250Z,11.00
2022-11-04T09:38:56.238Z,12.10
2022-11-04T09:39:56.218Z,11.60
2022-11-04T09:40:56.199Z,11.00
2022-11-04T09:41:56.193Z,8.40
2022-11-04T09:42:56.176Z,10.30
2022-11-04T09:43:56.178Z,6.20
2022-11-04T09:45:57.141Z,7.90
2022-11-04T09:46:56.120Z,6.60
2022-11-04T09:47:56.128Z,9.20
2022-11-04T09:48:56.113Z,10.90
2022-11-04T09:49:56.090Z,10.00
2022-11-04T09:50:56.068Z,8.40
2022-11-04T09:51:56.407Z,6.50
2022-11-04T09:52:56.060Z,8.70
2022-11-04T09:53:56.032Z,9.80
2022-11-04T09:54:56.029Z,9.20
2022-11-04T09:55:56.008Z,7.90
2022-11-04T09:56:56.004Z,7.50
2022-11-04T09:57:56.022Z,5.10
2022-11-04T09:58:55.963Z,8.20
2022-11-04T09:59:55.970Z,7.10
2022-11-04T10:00:55.963Z,7.60
2022-11-04T10:01:56.051Z,6.80
2022-11-04T10:02:55.909Z,9.60
2022-11-04T10:03:55.899Z,10.80
2022-11-04T10:04:55.899Z,7.60
2022-11-04T10:05:55.879Z,12.00
2022-11-04T10:06:55.859Z,12.30
2022-11-04T10:07:55.876Z,10.10
2022-11-04T10:08:55.831Z,9.90
2022-11-04T10:09:55.838Z,12.20
2022-11-04T10:10:55.799Z,7.90
2022-11-04T10:11:55.789Z,9.80
2022-11-04T10:12:55.782Z,8.40
2022-11-04T10:13:55.778Z,9.80
2022-11-04T10:14:55.761Z,8.60
2022-11-04T10:15:55.753Z,9.00
2022-11-04T10:16:55.727Z,9.80
2022-11-04T10:17:55.717Z,9.20
2022-11-04T10:18:55.699Z,8.90
2022-11-04T10:19:55.701Z,9.60
2022-11-04T10:20:55.674Z,9.40
2022-11-04T10:21:55.668Z,11.20
2022-11-04T10:22:55.653Z,11.70
2022-11-04T10:23:55.659Z,7.70
2022-11-04T10:24:55.619Z,5.70
2022-11-04T10:25:55.620Z,10.80
2022-11-04T10:27:00.185Z,14.30
2022-11-04T10:27:56.580Z,12.70
2022-11-04T10:28:55.570Z,8.60
2022-11-04T10:29:55.569Z,13.20
2022-11-04T10:30:55.553Z,8.40
2022-11-04T10:31:55.530Z,11.00
2022-11-04T10:32:55.519Z,8.90
2022-11-04T10:33:55.508Z,8.50
2022-11-04T10:34:55.500Z,10.90
2022-11-04T10:35:55.479Z,11.30
2022-11-04T10:36:55.461Z,12.80
2022-11-04T10:37:55.451Z,10.90
2022-11-04T10:38:55.441Z,9.70
2022-11-04T10:39:55.449Z,12.20
2022-11-04T10:40:55.412Z,8.00
2022-11-04T10:41:55.398Z,11.80
2022-11-04T10:42:55.406Z,7.00
2022-11-04T10:43:55.370Z,8.40
2022-11-04T10:44:55.369Z,11.10
2022-11-04T10:45:55.351Z,8.20
2022-11-04T10:46:55.330Z,12.00
2022-11-04T10:47:55.321Z,11.60
2022-11-04T10:48:55.301Z,8.20
2022-11-04T10:50:26.572Z,9.90
2022-11-04T10:50:56.271Z,10.10
2022-11-04T10:51:55.269Z,9.70
2022-11-04T10:52:55.262Z,7.90
2022-11-04T10:53:55.244Z,5.00
2022-11-04T10:54:55.231Z,7.50
2022-11-04T10:55:55.271Z,7.80
2022-11-04T10:56:55.350Z,6.70
2022-11-04T10:57:55.191Z,9.70
2022-11-04T10:58:55.172Z,10.70
2022-11-04T10:59:55.178Z,5.60
2022-11-04T11:00:55.197Z,8.60
2022-11-04T11:01:55.247Z,9.90
2022-11-04T11:02:55.231Z,9.70
2022-11-04T11:03:55.112Z,5.20
2022-11-04T11:04:55.103Z,6.90
2022-11-04T11:05:55.106Z,9.10
2022-11-04T11:06:55.073Z,8.80
2022-11-04T11:07:55.064Z,7.10
2022-11-04T11:08:55.068Z,8.40
2022-11-04T11:09:55.070Z,7.90
2022-11-04T11:10:55.033Z,10.50
2022-11-04T11:11:55.013Z,8.40
2022-11-04T11:12:54.997Z,7.30
2022-11-04T11:13:54.982Z,9.80
2022-11-04T11:14:54.976Z,9.30
2022-11-04T11:15:54.954Z,9.20
2022-11-04T11:16:54.954Z,8.50
2022-11-04T11:17:55.026Z,7.30
2022-11-04T11:18:54.932Z,6.20
2022-11-04T11:19:54.935Z,7.40
2022-11-04T11:20:54.887Z,9.90
2022-11-04T11:21:54.873Z,7.30
2022-11-04T11:22:55.352Z,9.60
2022-11-04T11:23:54.855Z,9.50
2022-11-04T11:24:54.856Z,10.00
2022-11-04T11:25:54.826Z,6.10
2022-11-04T11:26:54.806Z,6.80
2022-11-04T11:27:54.805Z,10.00
2022-11-04T11:28:58.891Z,5.30
2022-11-04T11:29:54.786Z,9.70
2022-11-04T11:30:54.766Z,9.70
2022-11-04T11:31:54.774Z,7.80
2022-11-04T11:32:54.736Z,10.20
2022-11-04T11:33:54.724Z,9.50
2022-11-04T11:34:54.716Z,9.50
2022-11-04T11:35:54.716Z,6.20
2022-11-04T11:36:54.715Z,6.40
2022-11-04T11:37:54.678Z,7.90
2022-11-04T11:38:54.659Z,8.00
2022-11-04T11:39:54.657Z,8.10
2022-11-04T11:41:22.720Z,10.70
2022-11-04T11:41:55.627Z,8.10
2022-11-04T11:42:54.619Z,7.20
2022-11-04T11:43:54.602Z,7.60
2022-11-04T11:44:54.588Z,7.20
2022-11-04T11:45:54.569Z,7.10
2022-11-04T11:47:55.346Z,6.80
2022-11-04T11:48:55.340Z,6.50
2022-11-04T11:49:55.330Z,10.50
2022-11-04T11:50:55.314Z,5.80
2022-11-04T11:51:55.290Z,6.10
2022-11-04T11:52:55.293Z,5.60
2022-11-04T11:53:55.264Z,7.20
2022-11-04T11:54:55.276Z,7.70
2022-11-04T11:55:55.248Z,10.80
2022-11-04T12:01:03.185Z,10.00
2022-11-04T12:01:56.256Z,9.30
2022-11-04T12:02:55.382Z,7.80
2022-11-04T12:09:56.082Z,10.60
2022-11-04T12:10:55.063Z,8.20
2022-11-04T12:11:55.044Z,13.70
2022-11-04T12:12:55.035Z,9.70
2022-11-04T12:13:55.023Z,8.10
2022-11-04T12:14:55.024Z,8.80
2022-11-04T12:15:54.994Z,6.20
2022-11-04T12:16:54.986Z,7.30
2022-11-04T12:17:54.965Z,7.40
2022-11-04T12:18:54.966Z,6.70
2022-11-04T12:19:54.953Z,13.00
2022-11-04T12:20:54.924Z,7.10
2022-11-04T12:21:54.915Z,9.70
2022-11-04T12:22:54.907Z,9.10
2022-11-04T12:23:54.885Z,5.40
2022-11-04T12:24:54.896Z,7.80
2022-11-04T12:25:54.870Z,7.50
2022-11-04T12:26:54.887Z,6.50
2022-11-04T12:27:54.836Z,9.60
2022-11-04T12:28:54.859Z,8.60
2022-11-04T12:29:54.826Z,7.50
2022-11-04T12:30:54.809Z,9.30
2022-11-04T12:31:54.787Z,7.70
2022-11-04T12:32:54.777Z,9.00
2022-11-04T12:33:54.768Z,7.40
2022-11-04T12:34:54.872Z,7.30
2022-11-04T12:35:54.740Z,7.60
2022-11-04T12:36:54.729Z,8.50
2022-11-04T12:37:54.757Z,9.50
2022-11-04T12:38:54.708Z,9.20
2022-11-04T12:39:54.706Z,7.70
2022-11-04T12:41:27.689Z,12.10
2022-11-04T12:42:55.658Z,9.60
2022-11-04T12:43:54.638Z,5.50
2022-11-04T12:44:54.637Z,7.50
2022-11-04T12:45:54.616Z,8.80
2022-11-04T12:46:54.608Z,8.50
2022-11-04T12:47:54.589Z,7.90
2022-11-04T12:48:58.376Z,6.80
2022-11-04T12:49:55.568Z,6.90
2022-11-04T12:50:54.556Z,8.90
2022-11-04T12:51:54.537Z,7.00
2022-11-04T12:52:54.527Z,9.90
2022-11-04T12:53:54.508Z,5.80
2022-11-04T12:54:54.510Z,9.90
2022-11-04T12:55:54.482Z,9.00
2022-11-04T12:56:54.477Z,11.30
2022-11-04T12:57:54.457Z,9.80
2022-11-04T12:58:54.449Z,13.20
2022-11-04T12:59:54.448Z,8.60
2022-11-04T13:00:59.106Z,9.30
2022-11-04T13:01:55.544Z,6.90
2022-11-04T13:02:54.398Z,10.40
2022-11-04T13:03:54.379Z,11.90
2022-11-04T13:04:54.392Z,7.50
2022-11-04T13:05:54.354Z,12.90
2022-11-04T13:06:54.361Z,11.40
2022-11-04T13:07:54.329Z,7.60
2022-11-04T13:08:54.338Z,7.30
2022-11-04T13:09:54.315Z,10.50
2022-11-04T13:10:54.300Z,8.00
2022-11-04T13:11:54.278Z,10.80
2022-11-04T13:12:54.306Z,8.60
2022-11-04T13:13:58.926Z,9.70
2022-11-04T13:14:55.247Z,9.00
2022-11-04T13:15:54.228Z,17.50
2022-11-04T13:16:54.218Z,15.40
2022-11-04T13:17:54.197Z,9.50
2022-11-04T13:18:54.188Z,8.10
2022-11-04T13:19:54.188Z,8.80
2022-11-04T13:20:56.852Z,9.50
2022-11-04T13:21:55.148Z,8.10
2022-11-04T13:22:56.720Z,8.90
2022-11-04T13:23:55.119Z,13.90
2022-11-04T13:24:54.130Z,12.20
2022-11-04T13:25:54.103Z,12.60
2022-11-04T13:26:54.090Z,10.60
2022-11-04T13:27:54.067Z,8.60
2022-11-04T13:28:54.061Z,11.10
2022-11-04T13:29:54.050Z,10.60
2022-11-04T13:30:54.030Z,9.00
2022-11-04T13:31:54.016Z,9.60
2022-11-04T13:32:53.997Z,10.00
2022-11-04T13:33:53.999Z,11.20
2022-11-04T13:34:53.988Z,7.70
2022-11-04T13:35:53.958Z,7.90
2022-11-04T13:36:53.948Z,8.10
2022-11-04T13:37:53.935Z,12.80
2022-11-04T13:38:53.927Z,7.30
2022-11-04T13:39:53.917Z,8.00
2022-11-04T13:40:53.897Z,7.70
2022-11-04T13:41:53.900Z,7.90
2022-11-04T13:42:53.891Z,6.40
2022-11-04T13:43:53.856Z,8.70
2022-11-04T13:44:53.860Z,9.00
2022-11-04T13:45:53.828Z,12.70
2022-11-04T13:46:53.835Z,5.90
2022-11-04T13:47:53.805Z,11.80
2022-11-04T13:48:53.796Z,9.70
2022-11-04T13:49:53.791Z,7.30
2022-11-04T13:50:53.767Z,7.00
2022-11-04T13:51:53.747Z,9.20
2022-11-04T13:52:53.746Z,10.10
2022-11-04T13:53:53.729Z,8.90
2022-11-04T13:54:53.730Z,7.60
2022-11-04T13:55:53.707Z,11.70
2022-11-04T13:56:53.696Z,7.70
2022-11-04T13:57:53.675Z,6.50
2022-11-04T13:58:53.701Z,5.50
2022-11-04T13:59:53.732Z,10.70
2022-11-04T14:00:53.645Z,9.90
2022-11-04T14:01:53.701Z,8.70
2022-11-04T14:02:53.709Z,7.40
2022-11-04T14:03:53.596Z,6.50
2022-11-04T14:04:53.604Z,9.00
2022-11-04T14:05:53.576Z,8.40
2022-11-04T14:06:53.568Z,7.80
2022-11-04T14:07:53.546Z,8.10
2022-11-04T14:08:53.583Z,5.90
2022-11-04T14:09:53.534Z,8.80
2022-11-04T14:10:53.516Z,9.10
2022-11-04T14:11:53.505Z,8.50
2022-11-04T14:12:53.489Z,8.70
2022-11-04T14:13:53.466Z,5.30
2022-11-04T14:14:53.475Z,10.20
2022-11-04T14:15:53.446Z,8.80
2022-11-04T14:16:53.435Z,10.30
2022-11-04T14:17:53.428Z,10.60
2022-11-04T14:18:53.414Z,8.90
2022-11-04T14:19:53.395Z,7.30
2022-11-04T14:20:53.385Z,9.10
2022-11-04T14:21:53.488Z,7.60
2022-11-04T14:22:53.363Z,8.30
2022-11-04T14:23:53.344Z,9.20
2022-11-04T14:24:53.344Z,7.80
2022-11-04T14:25:53.334Z,10.00
2022-11-04T14:26:53.306Z,10.20
2022-11-04T14:27:53.286Z,11.30
2022-11-04T14:28:53.283Z,8.10
2022-11-04T14:29:53.276Z,6.90
2022-11-04T14:30:53.254Z,8.50
2022-11-04T14:31:53.257Z,7.70
2022-11-04T14:32:53.226Z,6.00
2022-11-04T14:33:53.686Z,8.00
2022-11-04T14:34:53.205Z,9.10
2022-11-04T14:35:53.204Z,6.30
2022-11-04T14:36:53.174Z,8.40
2022-11-04T14:37:55.735Z,8.80
2022-11-04T14:38:53.156Z,9.10
2022-11-04T14:39:53.137Z,7.10
2022-11-04T14:40:53.147Z,9.40
2022-11-04T14:41:53.107Z,10.50
2022-11-04T14:42:53.110Z,11.90
2022-11-04T14:43:53.084Z,13.20
2022-11-04T14:44:53.074Z,8.30
2022-11-04T14:45:53.072Z,9.90
2022-11-04T14:46:53.045Z,7.20
2022-11-04T14:47:53.039Z,8.70
2022-11-04T14:48:53.014Z,7.10
2022-11-04T14:49:53.012Z,6.20
2022-11-04T14:50:53.003Z,6.50
2022-11-04T14:51:52.983Z,11.90
2022-11-04T14:52:52.963Z,7.70
2022-11-04T14:53:52.953Z,10.30
2022-11-04T14:54:52.952Z,8.00
2022-11-04T14:55:52.943Z,11.10
2022-11-04T14:56:52.923Z,9.30
2022-11-04T14:57:52.932Z,8.00
2022-11-04T14:58:52.882Z,7.30
2022-11-04T14:59:52.873Z,9.40
2022-11-04T15:00:52.938Z,9.20
2022-11-04T15:01:53.002Z,7.60
2022-11-04T15:02:52.834Z,10.30
2022-11-04T15:04:53.804Z,8.60
2022-11-04T15:05:52.812Z,6.10
2022-11-04T15:06:55.148Z,7.00
2022-11-04T15:07:52.792Z,8.10
2022-11-04T15:08:52.763Z,12.00
2022-11-04T15:09:52.741Z,13.50
2022-11-04T15:10:52.747Z,10.60
2022-11-04T15:11:52.712Z,9.90
2022-11-04T15:12:52.711Z,8.80
2022-11-04T15:13:52.691Z,9.20
2022-11-04T15:14:52.683Z,6.30
2022-11-04T15:15:52.672Z,8.70
2022-11-04T15:16:52.660Z,7.70
2022-11-04T15:17:52.643Z,9.90
2022-11-04T15:18:52.631Z,7.30
2022-11-04T15:19:52.611Z,6.60
2022-11-04T15:20:52.615Z,8.80
2022-11-04T15:21:52.590Z,7.60
2022-11-04T15:22:52.581Z,11.70
2022-11-04T15:23:52.560Z,10.50
2022-11-04T15:24:52.561Z,12.10
2022-11-04T15:25:52.551Z,8.90
2022-11-04T15:26:52.522Z,9.80
2022-11-04T15:27:52.510Z,9.80
2022-11-04T15:28:52.500Z,7.90
2022-11-04T15:29:52.487Z,7.20
2022-11-04T15:30:52.489Z,8.50
2022-11-04T15:31:52.459Z,8.90
2022-11-04T15:32:52.450Z,12.40
2022-11-04T15:33:52.429Z,8.10
2022-11-04T15:34:52.429Z,8.40
2022-11-04T15:35:52.419Z,10.20
2022-11-04T15:36:52.398Z,5.40
2022-11-04T15:37:52.380Z,6.00
2022-11-04T15:38:52.387Z,8.00
2022-11-04T15:39:52.353Z,5.80
2022-11-04T15:40:52.359Z,5.20
2022-11-04T15:41:52.328Z,6.00
2022-11-04T15:42:52.317Z,5.50
2022-11-04T15:43:52.310Z,4.90
2022-11-04T15:44:52.291Z,6.70
2022-11-04T15:45:52.290Z,4.20
2022-11-04T15:46:52.271Z,3.20
2022-11-04T15:47:52.248Z,5.80
2022-11-04T15:48:52.263Z,3.40
2022-11-04T15:49:52.226Z,5.00
2022-11-04T15:50:52.220Z,6.90
2022-11-04T15:51:52.198Z,4.90
2022-11-04T15:52:52.191Z,4.40
2022-11-04T15:53:52.170Z,5.70
2022-11-04T15:54:52.159Z,4.90
2022-11-04T15:55:52.158Z,5.90
2022-11-04T15:56:52.140Z,5.90
2022-11-04T15:57:52.121Z,5.30
2022-11-04T15:58:52.107Z,6.70
2022-11-04T15:59:52.098Z,6.60
2022-11-04T16:00:52.126Z,7.10
2022-11-04T16:01:52.258Z,4.90
2022-11-04T16:02:52.059Z,6.70
2022-11-04T16:03:52.037Z,8.00
2022-11-04T16:04:52.028Z,8.40
2022-11-04T16:05:52.027Z,7.50
2022-11-04T16:06:52.017Z,5.70
2022-11-04T16:07:52.006Z,5.70
2022-11-04T16:08:51.976Z,6.80
2022-11-04T16:09:51.956Z,8.30
2022-11-04T16:10:51.993Z,4.70
2022-11-04T16:11:51.936Z,6.70
2022-11-04T16:12:51.936Z,9.80
2022-11-04T16:13:51.905Z,10.10
2022-11-04T16:14:51.976Z,5.90
2022-11-04T16:15:51.883Z,8.50
2022-11-04T16:16:51.866Z,7.70
2022-11-04T16:17:51.868Z,8.60
2022-11-04T16:18:51.843Z,9.90
2022-11-04T16:19:51.825Z,8.10
2022-11-04T16:20:51.824Z,14.00
2022-11-04T16:21:51.796Z,9.80
2022-11-04T16:22:51.806Z,11.50
2022-11-04T16:23:51.774Z,12.40
2022-11-04T16:24:51.765Z,12.90
2022-11-04T16:25:51.764Z,14.30
2022-11-04T16:26:51.734Z,14.70
2022-11-04T16:27:51.725Z,10.60
2022-11-04T16:28:51.719Z,15.30
2022-11-04T16:29:51.694Z,17.30
2022-11-04T16:30:51.683Z,12.90
2022-11-04T16:31:51.664Z,13.60
2022-11-04T16:32:51.669Z,11.70
2022-11-04T16:33:51.642Z,14.00
2022-11-04T16:34:51.645Z,14.50
2022-11-04T16:35:51.612Z,9.70
2022-11-04T16:36:51.604Z,11.70
2022-11-04T16:37:51.600Z,9.00
2022-11-04T16:38:51.582Z,11.50
2022-11-04T16:39:51.554Z,13.60
2022-11-04T16:40:51.553Z,11.50
2022-11-04T16:41:51.533Z,13.20
2022-11-04T16:42:51.534Z,18.20
2022-11-04T16:43:51.504Z,11.00
2022-11-04T16:44:51.492Z,11.30
2022-11-04T16:45:54.025Z,18.70
2022-11-04T16:46:51.463Z,18.50
2022-11-04T16:47:51.493Z,20.20
2022-11-04T16:48:51.442Z,22.70
2022-11-04T16:49:51.432Z,17.30
2022-11-04T16:50:51.422Z,14.90
2022-11-04T16:51:51.392Z,11.50
2022-11-04T16:52:51.411Z,13.30
2022-11-04T16:53:51.377Z,13.10
2022-11-04T16:54:51.364Z,14.90
2022-11-04T16:55:51.350Z,12.00
2022-11-04T16:56:51.359Z,10.70
2022-11-04T16:57:51.332Z,10.60
2022-11-04T16:58:51.311Z,4.40
2022-11-04T16:59:51.301Z,8.10
2022-11-04T17:00:51.374Z,7.30
2022-11-04T17:01:51.409Z,8.70
2022-11-04T17:02:51.266Z,7.70
2022-11-04T17:03:51.247Z,11.00
2022-11-04T17:04:51.242Z,10.10
2022-11-04T17:05:51.255Z,9.30
2022-11-04T17:06:51.199Z,8.10
2022-11-04T17:07:55.466Z,10.50
2022-11-04T17:08:52.184Z,8.10
2022-11-04T17:09:51.170Z,9.10
2022-11-04T17:10:51.159Z,12.60
2022-11-04T17:11:51.135Z,11.30
2022-11-04T17:12:51.120Z,13.40
2022-11-04T17:13:51.099Z,11.80
2022-11-04T17:14:51.098Z,13.90
2022-11-04T17:15:51.080Z,12.40
2022-11-04T17:16:51.078Z,14.30
2022-11-04T17:17:51.049Z,9.60
2022-11-04T17:18:51.041Z,11.80
2022-11-04T17:19:51.025Z,11.70
2022-11-04T17:20:51.029Z,13.90
2022-11-04T17:21:50.998Z,11.70
2022-11-04T17:22:50.990Z,10.30
2022-11-04T17:23:50.976Z,11.60
2022-11-04T17:24:50.957Z,17.90
2022-11-04T17:25:50.948Z,13.00
2022-11-04T17:26:50.927Z,12.90
2022-11-04T17:27:50.929Z,13.00
2022-11-04T17:28:50.905Z,15.60
2022-11-04T17:29:50.894Z,14.10
2022-11-04T17:30:50.886Z,13.90
2022-11-04T17:31:50.858Z,15.80
2022-11-04T17:32:50.856Z,15.40
2022-11-04T17:33:50.827Z,19.10
2022-11-04T17:34:50.836Z,13.80
2022-11-04T17:35:50.816Z,14.40
2022-11-04T17:36:50.796Z,12.50
2022-11-04T17:37:50.784Z,15.80
2022-11-04T17:38:50.768Z,11.40
2022-11-04T17:39:50.757Z,27.20
2022-11-04T17:40:50.756Z,17.30
2022-11-04T17:41:50.736Z,25.80
2022-11-04T17:42:50.716Z,33.70
2022-11-04T17:43:50.718Z,34.00
2022-11-04T17:44:50.696Z,31.60
2022-11-04T17:45:50.686Z,26.10
2022-11-04T17:46:50.673Z,32.00
2022-11-04T17:47:50.653Z,31.60
2022-11-04T17:48:50.633Z,34.20
2022-11-04T17:49:50.663Z,31.60
2022-11-04T17:50:50.614Z,35.30
2022-11-04T17:51:50.593Z,38.10
2022-11-04T17:52:50.576Z,29.60
2022-11-04T17:53:50.565Z,20.00
2022-11-04T17:54:50.554Z,22.20
2022-11-04T17:55:50.552Z,20.90
2022-11-04T17:56:50.526Z,19.20
2022-11-04T17:57:50.514Z,23.40
2022-11-04T17:58:50.494Z,41.90
2022-11-04T17:59:50.493Z,34.90
2022-11-04T18:00:50.524Z,37.40
2022-11-04T18:01:50.549Z,34.70
2022-11-04T18:02:50.671Z,29.40
2022-11-04T18:03:50.432Z,37.50
2022-11-04T18:04:50.432Z,27.80
2022-11-04T18:05:50.514Z,32.70
2022-11-04T18:06:50.392Z,34.90
2022-11-04T18:07:50.382Z,33.40
2022-11-04T18:08:50.364Z,38.80
2022-11-04T18:09:50.353Z,49.70
2022-11-04T18:10:50.357Z,38.30
2022-11-04T18:11:50.334Z,29.50
2022-11-04T18:12:50.313Z,25.40
2022-11-04T18:13:50.304Z,27.40
2022-11-04T18:14:50.283Z,26.40
2022-11-04T18:15:50.287Z,20.70
2022-11-04T18:16:50.261Z,19.90
2022-11-04T18:17:50.264Z,21.60
2022-11-04T18:18:50.232Z,20.10
2022-11-04T18:19:50.230Z,18.00
2022-11-04T18:20:50.222Z,16.20
2022-11-04T18:21:50.191Z,18.80
2022-11-04T18:22:50.181Z,17.80
2022-11-04T18:23:50.175Z,22.50
2022-11-04T18:24:50.200Z,17.80
2022-11-04T18:25:50.871Z,22.10
2022-11-04T18:26:50.138Z,20.80
2022-11-04T18:27:50.120Z,23.00
2022-11-04T18:28:50.110Z,22.00
2022-11-04T18:29:50.093Z,21.10
2022-11-04T18:30:50.090Z,18.90
2022-11-04T18:31:50.076Z,19.90
2022-11-04T18:32:50.049Z,17.90
2022-11-04T18:33:50.047Z,18.30
2022-11-04T18:34:50.021Z,23.50
2022-11-04T18:35:50.024Z,22.50
2022-11-04T18:36:49.999Z,21.60
2022-11-04T18:37:49.989Z,23.00
2022-11-04T18:38:49.968Z,20.50
2022-11-04T18:39:49.958Z,22.70
2022-11-04T18:40:49.961Z,24.70
2022-11-04T18:41:49.938Z,23.40
2022-11-04T18:42:49.918Z,22.20
2022-11-04T18:43:49.917Z,25.30
2022-11-04T18:44:49.898Z,24.30
2022-11-04T18:45:49.898Z,26.00
2022-11-04T18:46:49.887Z,25.10
2022-11-04T18:47:49.858Z,21.40
2022-11-04T18:48:49.839Z,23.30
2022-11-04T18:49:49.838Z,23.70
2022-11-04T18:50:49.907Z,24.70
2022-11-04T18:51:49.807Z,24.70